Time;durP1;ratioP1;P1;durP2;ratioP2;P2;SDS_P1;SDS_P2;PMS_P1;PMS_P2;Temp;Humidity;BMP_temperature;BMP_pressure;BME280_temperature;BME280_humidity;BME280_pressure;Samples;Min_cycle;Max_cycle;Signal;HPM_P1;HPM_P2
2021/12/31 00:00:18;;;;;;;11.82;3.50;;;14.10;99.90;;;12.81;100.00;100786.59;4973104;28;20118;-90
2021/12/31 00:02:45;;;;;;;10.55;3.60;;;14.10;99.90;;;12.80;100.00;100792.25;4971250;28;20051;-90
2021/12/31 00:05:13;;;;;;;10.68;3.50;;;14.10;99.90;;;12.81;100.00;100782.97;4987684;28;20118;-90
2021/12/31 00:07:40;;;;;;;11.27;3.05;;;14.10;99.90;;;12.78;100.00;100784.22;4971359;28;20071;-89
2021/12/31 00:10:09;;;;;;;9.90;2.95;;;14.10;99.90;;;12.74;100.00;100777.47;4971549;28;20043;-89
2021/12/31 00:12:36;;;;;;;10.05;3.17;;;14.10;99.90;;;12.74;100.00;100784.78;4986973;28;20042;-89
2021/12/31 00:15:04;;;;;;;9.95;2.80;;;14.10;99.90;;;12.74;100.00;100792.97;4971283;28;20047;-89
2021/12/31 00:17:33;;;;;;;10.48;3.00;;;14.10;99.90;;;12.75;100.00;100794.69;4987415;28;20098;-90
2021/12/31 00:20:04;;;;;;;8.85;3.40;;;14.10;99.90;;;12.78;100.00;100792.41;4972481;28;20109;-90
2021/12/31 00:25:29;;;;;;;11.95;3.25;;;14.10;99.90;;;12.79;100.00;100788.63;4912183;29;20056;-89
2021/12/31 00:27:56;;;;;;;10.98;3.50;;;14.20;99.90;;;12.81;100.00;100794.78;4958230;28;20082;-90
2021/12/31 00:30:24;;;;;;;10.50;3.03;;;14.10;99.90;;;12.80;100.00;100784.88;4971126;28;20582;-90
2021/12/31 00:32:53;;;;;;;8.55;3.05;;;14.20;99.90;;;12.84;100.00;100779.88;4971805;28;20093;-91
2021/12/31 00:35:20;;;;;;;9.23;2.97;;;14.10;99.90;;;12.81;100.00;100778.41;4970514;28;20050;-89
2021/12/31 00:37:48;;;;;;;9.00;2.92;;;14.10;99.90;;;12.82;100.00;100779.22;4987124;28;20078;-91
2021/12/31 00:40:17;;;;;;;9.38;3.05;;;14.10;99.90;;;12.79;100.00;100774.97;4987094;28;20042;-89
2021/12/31 00:42:45;;;;;;;9.18;2.85;;;14.10;99.90;;;12.82;100.00;100773.78;4999187;23;20116;-89
2021/12/31 00:45:16;;;;;;;10.85;2.95;;;14.10;99.90;;;12.77;100.00;100765.28;4991254;28;20085;-90
2021/12/31 00:47:44;;;;;;;9.73;3.08;;;14.10;99.90;;;12.78;100.00;100770.56;4991297;28;20046;-89
2021/12/31 00:50:14;;;;;;;9.52;2.90;;;14.10;99.90;;;12.80;100.00;100764.94;4991129;28;20042;-89
2021/12/31 00:52:42;;;;;;;8.13;2.53;;;14.10;99.90;;;12.79;100.00;100764.06;4990584;28;20085;-89
2021/12/31 00:55:11;;;;;;;9.10;2.70;;;14.10;99.90;;;12.83;100.00;100762.66;4991036;28;20097;-89
2021/12/31 00:57:39;;;;;;;13.13;3.00;;;14.20;99.90;;;12.86;100.00;100773.19;4990825;28;20089;-89
2021/12/31 01:00:12;;;;;;;10.20;2.63;;;14.20;99.90;;;12.84;100.00;100771.69;4991044;28;20046;-89
2021/12/31 01:02:40;;;;;;;9.05;2.70;;;14.10;99.90;;;12.86;100.00;100775.91;4990573;28;20061;-89
2021/12/31 01:05:09;;;;;;;12.63;2.63;;;14.20;99.90;;;12.84;100.00;100780.72;4990468;28;20101;-90
2021/12/31 01:07:37;;;;;;;6.28;2.42;;;14.10;99.90;;;12.86;100.00;100775.91;4990930;28;20046;-89
2021/12/31 01:10:07;;;;;;;6.15;2.58;;;14.10;99.90;;;12.84;100.00;100782.63;4990927;28;20050;-90
2021/12/31 01:12:34;;;;;;;6.10;2.65;;;14.10;99.90;;;12.84;100.00;100783.44;4990624;28;20388;-90
2021/12/31 01:15:04;;;;;;;19.58;2.85;;;14.20;99.90;;;12.84;100.00;100777.97;4991322;28;20046;-89
2021/12/31 01:18:02;;;;;;;6.40;2.30;;;14.10;99.90;;;12.87;100.00;100790.41;4990856;28;20073;-89
2021/12/31 01:20:30;;;;;;;8.07;2.30;;;14.20;99.90;;;12.84;100.00;100788.91;5005752;28;20065;-90
2021/12/31 01:22:59;;;;;;;9.27;2.22;;;14.20;99.90;;;12.85;100.00;100785.16;4990512;28;20907;-90
2021/12/31 01:25:26;;;;;;;9.40;2.25;;;14.20;99.90;;;12.83;100.00;100769.97;4990661;28;20050;-89
2021/12/31 01:27:53;;;;;;;8.85;2.10;;;14.10;99.90;;;12.86;100.00;100777.81;4990377;28;20046;-91
2021/12/31 01:30:21;;;;;;;10.20;2.28;;;14.10;99.90;;;12.84;100.00;100772.53;4990608;28;20054;-88
2021/12/31 01:32:49;;;;;;;9.52;2.60;;;14.20;99.90;;;12.88;100.00;100776.56;4990010;28;20042;-87
2021/12/31 01:35:16;;;;;;;6.22;1.85;;;14.20;99.90;;;12.88;100.00;100784.75;4989394;28;20104;-88
2021/12/31 01:37:44;;;;;;;8.70;2.35;;;14.20;99.90;;;12.87;100.00;100774.88;4990779;28;20066;-88
2021/12/31 01:40:14;;;;;;;6.63;1.95;;;14.10;99.90;;;12.88;100.00;100782.03;4990348;28;20050;-89
2021/12/31 01:42:41;;;;;;;8.65;2.38;;;14.10;99.90;;;12.87;100.00;100774.00;4989829;28;20078;-88
2021/12/31 01:45:14;;;;;;;7.63;2.03;;;14.20;99.90;;;12.89;100.00;100778.25;4990254;28;20077;-89
2021/12/31 01:47:56;;;;;;;6.50;1.92;;;14.20;99.90;;;12.84;100.00;100771.69;4990247;28;20042;-89
2021/12/31 01:50:26;;;;;;;7.93;1.90;;;14.20;99.90;;;12.87;100.00;100780.34;4990174;28;20050;-89
2021/12/31 01:52:53;;;;;;;7.35;2.10;;;14.20;99.90;;;12.88;100.00;100779.28;4989752;28;20120;-89
2021/12/31 01:55:26;;;;;;;4.63;2.10;;;14.20;99.90;;;12.87;100.00;100777.63;4990015;28;20445;-89
2021/12/31 01:57:55;;;;;;;5.72;2.25;;;14.20;99.90;;;12.87;100.00;100774.88;4989982;28;20140;-89
2021/12/31 02:00:22;;;;;;;7.75;2.13;;;14.20;99.90;;;12.88;100.00;100792.94;4989970;28;20453;-88
2021/12/31 02:02:50;;;;;;;6.72;1.92;;;14.20;99.90;;;12.88;100.00;100792.09;4989519;28;20154;-88
2021/12/31 02:05:18;;;;;;;6.95;2.17;;;14.20;99.90;;;12.85;100.00;100779.69;4989812;28;20076;-88
2021/12/31 02:07:45;;;;;;;7.13;2.00;;;14.20;99.90;;;12.87;100.00;100788.53;4989766;28;20046;-89
2021/12/31 02:10:12;;;;;;;5.70;2.13;;;14.20;99.90;;;12.89;100.00;100786.47;4989793;28;20038;-89
2021/12/31 02:12:47;;;;;;;7.97;2.05;;;14.20;99.90;;;12.87;100.00;100780.34;4989247;28;20053;-89
2021/12/31 02:15:15;;;;;;;7.75;2.65;;;14.20;99.90;;;12.89;100.00;100775.53;4988907;28;20570;-89
2021/12/31 02:17:44;;;;;;;6.18;1.90;;;14.20;99.90;;;12.90;100.00;100782.66;4989413;28;20057;-89
2021/12/31 02:20:14;;;;;;;6.40;2.00;;;14.20;99.90;;;12.91;100.00;100789.84;5004643;28;20050;-89
2021/12/31 02:22:50;;;;;;;5.93;1.83;;;14.20;99.90;;;12.93;100.00;100791.50;4989426;28;20116;-88
2021/12/31 02:25:23;;;;;;;6.47;2.20;;;14.20;99.90;;;12.91;100.00;100795.31;4989821;28;20092;-91
2021/12/31 02:27:53;;;;;;;8.18;2.00;;;14.20;99.90;;;12.95;100.00;100789.47;4989918;28;20292;-90
2021/12/31 02:30:20;;;;;;;4.70;1.90;;;14.20;99.90;;;12.96;100.00;100791.97;4988444;28;20507;-89
2021/12/31 02:32:47;;;;;;;7.00;1.90;;;14.30;99.90;;;12.96;100.00;100793.88;4989332;28;20100;-89
2021/12/31 02:35:21;;;;;;;4.97;2.15;;;14.30;99.90;;;12.96;100.00;100793.88;4990001;28;20050;-91
2021/12/31 02:37:55;;;;;;;8.75;2.10;;;14.30;99.90;;;12.94;100.00;100790.50;5004558;28;20046;-89
2021/12/31 02:40:24;;;;;;;8.52;1.92;;;14.30;99.90;;;12.93;100.00;100789.66;4989518;28;20050;-88
2021/12/31 02:42:51;;;;;;;7.60;2.05;;;14.20;99.90;;;12.88;100.00;100782.03;4989115;28;20035;-89
2021/12/31 02:45:21;;;;;;;5.70;1.70;;;14.20;99.90;;;12.97;100.00;100792.84;4979333;28;20074;-88
2021/12/31 02:47:48;;;;;;;7.15;2.00;;;14.20;99.90;;;12.91;100.00;100780.81;4969022;28;20043;-88
2021/12/31 02:50:20;;;;;;;8.70;2.05;;;14.20;99.90;;;12.93;100.00;100786.06;4969935;28;20467;-89
2021/12/31 02:52:49;;;;;;;6.63;1.70;;;14.20;99.90;;;12.91;100.00;100781.66;4968365;28;20556;-88
2021/12/31 02:55:17;;;;;;;7.55;2.15;;;14.20;99.90;;;12.90;100.00;100782.66;4970023;28;20129;-88
2021/12/31 02:57:46;;;;;;;5.97;2.20;;;14.20;99.90;;;12.90;100.00;100788.13;4968532;28;20046;-88
2021/12/31 03:00:14;;;;;;;9.10;2.20;;;14.20;99.90;;;12.91;100.00;100787.09;4968528;28;20039;-88
2021/12/31 03:02:42;;;;;;;7.38;2.28;;;14.20;99.90;;;12.90;100.00;100781.84;4969392;28;20038;-89
2021/12/31 03:05:11;;;;;;;5.93;2.47;;;14.20;99.90;;;12.92;100.00;100779.75;4969720;28;20125;-90
2021/12/31 03:07:41;;;;;;;8.02;2.40;;;14.20;99.90;;;12.92;100.00;100782.47;4969826;28;20047;-89
2021/12/31 03:10:10;;;;;;;8.90;2.25;;;14.20;99.90;;;12.91;100.00;100778.06;4968296;28;20047;-89
2021/12/31 03:12:41;;;;;;;5.90;2.28;;;14.20;99.90;;;12.92;100.00;100790.69;4969253;28;20034;-89
2021/12/31 03:15:11;;;;;;;8.23;2.45;;;14.20;99.90;;;12.89;100.00;100791.09;4968022;28;20046;-89
2021/12/31 03:17:41;;;;;;;11.57;2.75;;;14.20;99.90;;;12.90;100.00;100782.66;4969537;28;20105;-89
2021/12/31 03:20:12;;;;;;;5.57;2.20;;;14.20;99.90;;;12.92;100.00;100785.22;4969566;28;20047;-89
2021/12/31 03:22:41;;;;;;;;;;;14.20;99.90;;;12.91;100.00;100776.19;4968402;28;20423;-88
2021/12/31 03:25:10;;;;;;;10.63;2.40;;;14.20;99.90;;;12.89;100.00;100786.47;4969594;28;19969;-89
2021/12/31 03:27:38;;;;;;;10.02;2.45;;;14.20;99.90;;;12.91;100.00;100783.53;4971611;28;20138;-89
2021/12/31 03:30:10;;;;;;;8.00;2.38;;;14.20;99.90;;;12.92;100.00;100766.09;4971672;28;20058;-89
2021/12/31 03:32:37;;;;;;;7.93;2.10;;;14.20;99.90;;;12.89;100.00;100772.81;4971411;28;20055;-88
2021/12/31 03:35:06;;;;;;;8.32;2.42;;;14.20;99.90;;;12.92;100.00;100771.56;4972904;28;20093;-88
2021/12/31 03:37:33;;;;;;;8.27;1.90;;;14.20;99.90;;;12.93;100.00;100775.13;4971616;28;20078;-88
2021/12/31 03:40:02;;;;;;;7.50;2.33;;;14.20;99.90;;;12.93;100.00;100775.13;4972971;28;20492;-88
2021/12/31 03:42:31;;;;;;;7.43;2.15;;;14.20;99.90;;;12.94;100.00;100776.84;4972582;28;20058;-89
2021/12/31 03:44:58;;;;;;;7.05;2.40;;;14.20;99.90;;;12.96;100.00;100769.28;4971551;28;20046;-89
2021/12/31 03:47:25;;;;;;;4.90;1.88;;;14.20;99.90;;;12.93;100.00;100765.06;4972722;28;20074;-88
2021/12/31 03:49:53;;;;;;;7.78;2.13;;;14.20;99.90;;;12.95;100.00;100767.63;4972809;28;20054;-89
2021/12/31 03:52:20;;;;;;;6.00;2.00;;;14.20;99.90;;;12.91;100.00;100770.72;4972344;28;20137;-88
2021/12/31 03:54:47;;;;;;;7.90;2.20;;;14.20;99.90;;;12.91;100.00;100776.19;4972646;28;20075;-88
2021/12/31 03:57:16;;;;;;;7.65;2.30;;;14.20;99.90;;;12.89;100.00;100764.59;4971208;28;20113;-88
2021/12/31 03:59:43;;;;;;;7.72;1.60;;;14.20;99.90;;;12.91;100.00;100765.25;4972715;28;20049;-89
2021/12/31 04:02:11;;;;;;;11.55;2.08;;;14.20;99.90;;;12.95;100.00;100762.97;4972304;28;20078;-88
2021/12/31 04:04:38;;;;;;;6.47;2.00;;;14.20;99.90;;;12.95;100.00;100762.97;4972732;28;20382;-89
2021/12/31 04:07:05;;;;;;;5.75;1.85;;;14.20;99.90;;;12.96;100.00;100761.94;4972604;28;20070;-88
2021/12/31 04:09:33;;;;;;;6.63;2.00;;;14.20;99.90;;;12.91;100.00;100757.06;4971113;28;20086;-88
2021/12/31 04:12:00;;;;;;;7.95;2.20;;;14.20;99.90;;;12.92;100.00;100766.09;4972211;28;20140;-87
2021/12/31 04:14:28;;;;;;;8.80;2.38;;;14.20;99.90;;;12.94;100.00;100760.44;4972365;28;20182;-88
2021/12/31 04:16:56;;;;;;;7.32;1.83;;;14.20;99.90;;;12.93;100.00;100765.06;4972436;28;20515;-88
2021/12/31 04:19:23;;;;;;;5.28;1.70;;;14.20;99.90;;;12.94;100.00;100761.28;4971023;28;20058;-88
2021/12/31 04:21:50;;;;;;;7.15;1.75;;;14.20;99.90;;;12.89;100.00;100756.41;4971884;28;20085;-88
2021/12/31 04:24:29;;;;;;;6.97;2.05;;;14.20;99.90;;;12.90;100.00;100749.88;4972229;28;20067;-88
2021/12/31 04:26:57;;;;;;;3.83;1.70;;;14.20;99.90;;;12.93;100.00;100754.13;4985006;28;20054;-89
2021/12/31 04:29:24;;;;;;;4.18;1.75;;;14.20;99.90;;;12.91;100.00;100757.06;4991601;28;20124;-88
2021/12/31 04:31:53;;;;;;;7.57;1.85;;;14.10;99.90;;;12.94;100.00;100752.25;4991105;28;20058;-88
2021/12/31 04:34:20;;;;;;;7.75;1.52;;;14.20;99.90;;;12.88;100.00;100746.50;4989853;28;20097;-88
2021/12/31 04:36:48;;;;;;;6.30;1.80;;;14.20;99.90;;;12.89;100.00;100756.41;4991499;28;20038;-88
2021/12/31 04:39:15;;;;;;;5.95;1.80;;;14.20;99.90;;;12.92;100.00;100752.44;5005448;28;20050;-89
2021/12/31 04:41:42;;;;;;;9.70;2.00;;;14.20;99.90;;;12.94;100.00;100758.53;4990885;28;20074;-88
2021/12/31 04:44:09;;;;;;;6.60;1.67;;;14.20;99.90;;;12.93;100.00;100747.81;4990076;28;20097;-88
2021/12/31 04:46:37;;;;;;;8.73;2.00;;;14.20;99.90;;;12.93;100.00;100742.34;5004130;28;20194;-88
2021/12/31 04:49:07;;;;;;;8.65;1.73;;;14.20;99.90;;;12.90;100.00;100757.25;4989282;28;20042;-88
2021/12/31 04:51:34;;;;;;;5.63;1.80;;;14.10;99.90;;;12.88;100.00;100746.50;4989505;28;20412;-88
2021/12/31 04:54:02;;;;;;;5.57;1.73;;;14.10;99.90;;;12.87;100.00;100749.44;4991021;28;20047;-88
2021/12/31 04:56:29;;;;;;;5.13;1.90;;;14.10;99.90;;;12.88;100.00;100745.66;4989590;28;20046;-89
2021/12/31 04:58:56;;;;;;;5.15;1.85;;;14.10;99.90;;;12.87;100.00;100754.91;4989889;28;20069;-88
2021/12/31 05:01:24;;;;;;;7.20;2.05;;;14.10;99.90;;;12.85;100.00;100755.09;5005322;28;20050;-88
2021/12/31 05:03:51;;;;;;;4.45;1.80;;;14.10;99.90;;;12.87;100.00;100749.44;4989491;28;20073;-88
2021/12/31 05:06:20;;;;;;;5.60;1.85;;;14.20;99.90;;;12.88;100.00;100756.59;4990779;28;20077;-89
2021/12/31 05:08:47;;;;;;;5.57;1.98;;;14.10;99.90;;;12.87;100.00;100753.03;4990997;28;20076;-87
2021/12/31 05:11:14;;;;;;;6.57;1.98;;;14.10;99.90;;;12.85;100.00;100760.56;4990433;28;20074;-86
2021/12/31 05:13:42;;;;;;;6.43;2.00;;;14.10;99.90;;;12.85;100.00;100751.50;4990721;28;20054;-87
2021/12/31 05:16:09;;;;;;;9.68;1.80;;;14.10;99.90;;;12.83;100.00;100743.53;4990710;28;20096;-88
2021/12/31 05:18:36;;;;;;;8.38;1.95;;;14.10;99.90;;;12.82;100.00;100728.16;5005825;28;20461;-88
2021/12/31 05:21:05;;;;;;;5.80;1.95;;;14.10;99.90;;;12.82;100.00;100746.47;4988828;28;20132;-90
2021/12/31 05:23:33;;;;;;;8.48;2.15;;;14.10;99.90;;;12.83;100.00;100743.53;4990350;28;20124;-89
2021/12/31 05:26:01;;;;;;;5.63;2.10;;;14.10;99.90;;;12.81;100.00;100739.28;4990111;28;20101;-87
2021/12/31 05:28:28;;;;;;;11.57;2.03;;;14.10;99.90;;;12.82;100.00;100747.28;4990368;28;20561;-87
2021/12/31 05:30:56;;;;;;;3.70;1.45;;;14.10;99.90;;;12.84;100.00;100739.75;4990200;28;20533;-87
2021/12/31 05:33:23;;;;;;;13.10;1.92;;;14.10;99.90;;;12.82;100.00;100736.38;4990162;28;20469;-88
2021/12/31 05:35:51;;;;;;;5.80;1.70;;;14.10;99.90;;;12.83;100.00;100721.69;4988806;28;20042;-87
2021/12/31 05:38:18;;;;;;;6.03;1.65;;;14.10;99.90;;;12.83;100.00;100723.53;4990300;28;20129;-88
2021/12/31 05:40:47;;;;;;;4.70;1.63;;;14.10;99.90;;;12.85;100.00;100725.06;4990182;28;20109;-87
2021/12/31 05:43:14;;;;;;;6.25;1.90;;;14.10;99.90;;;12.86;100.00;100726.75;4989716;28;20093;-88
2021/12/31 05:45:41;;;;;;;5.97;1.90;;;14.10;99.90;;;12.81;100.00;100723.78;4988880;28;20058;-88
2021/12/31 05:48:08;;;;;;;10.57;1.85;;;14.10;99.90;;;12.82;100.00;100728.16;4990417;28;20046;-87
2021/12/31 05:50:36;;;;;;;4.07;1.55;;;14.10;99.90;;;12.78;100.00;100726.88;4988723;28;20183;-88
2021/12/31 05:53:03;;;;;;;5.88;1.60;;;14.10;99.90;;;12.76;100.00;100726.22;4989787;28;20042;-86
2021/12/31 05:55:31;;;;;;;4.80;1.73;;;14.10;99.90;;;12.77;100.00;100721.59;4989971;28;20034;-85
2021/12/31 05:58:01;;;;;;;6.82;1.60;;;14.10;99.90;;;12.77;100.00;100711.50;4990013;28;20144;-85
2021/12/31 06:00:29;;;;;;;3.63;1.80;;;14.10;99.90;;;12.79;100.00;100705.88;4990134;28;20839;-83
2021/12/31 06:02:57;;;;;;;4.43;1.70;;;14.10;99.90;;;12.75;100.00;100708.13;4989650;28;20137;-84
2021/12/31 06:05:26;;;;;;;5.97;1.60;;;14.10;99.90;;;12.75;100.00;100708.13;4989902;28;20065;-85
2021/12/31 06:07:56;;;;;;;5.40;1.83;;;14.00;99.90;;;12.71;100.00;100713.13;4988222;28;20085;-85
2021/12/31 06:10:24;;;;;;;4.72;1.63;;;14.00;99.90;;;12.67;100.00;100702.81;4989679;28;20171;-85
2021/12/31 06:12:52;;;;;;;6.90;1.50;;;14.00;99.90;;;12.66;100.00;100707.44;4989328;28;20538;-86
2021/12/31 06:15:21;;;;;;;5.25;1.42;;;14.00;99.90;;;12.68;100.00;100712.69;4989595;28;20050;-85
2021/12/31 06:17:48;;;;;;;6.70;1.70;;;14.00;99.90;;;12.72;100.00;100724.94;4989644;28;20100;-85
2021/12/31 06:20:16;;;;;;;3.85;1.50;;;14.00;99.90;;;12.73;100.00;100732.06;4989370;28;20046;-85
2021/12/31 06:22:43;;;;;;;4.68;1.50;;;14.00;99.90;;;12.66;100.00;100721.09;4989092;28;20120;-85
2021/12/31 06:25:12;;;;;;;5.05;1.70;;;14.00;99.90;;;12.69;100.00;100725.31;4989525;28;20058;-85
2021/12/31 06:27:40;;;;;;;4.38;1.58;;;14.00;99.90;;;12.66;100.00;100731.13;4989656;28;20129;-86
2021/12/31 06:30:09;;;;;;;4.30;1.42;;;14.00;99.90;;;12.64;100.00;100725.03;4989470;28;20406;-85
2021/12/31 06:32:38;;;;;;;7.05;1.60;;;14.00;99.90;;;12.65;100.00;100729.47;4989222;28;20662;-85
2021/12/31 06:35:07;;;;;;;6.15;1.60;;;14.00;99.90;;;12.66;100.00;100733.88;4989349;28;20046;-86
2021/12/31 06:37:34;;;;;;;4.55;1.88;;;14.00;99.90;;;12.65;100.00;100724.00;4988056;28;20074;-85
2021/12/31 06:40:04;;;;;;;8.07;1.90;;;14.00;99.90;;;12.64;100.00;100734.09;4989487;28;20765;-85
2021/12/31 06:42:32;;;;;;;6.88;1.77;;;13.90;99.90;;;12.58;100.00;100732.09;5006547;22;20523;-85
2021/12/31 06:44:59;;;;;;;3.60;1.60;;;13.90;99.90;;;12.58;100.00;100734.00;4989210;28;20129;-85
2021/12/31 06:47:27;;;;;;;3.65;1.67;;;13.90;99.90;;;12.55;100.00;100727.03;4989080;28;20043;-84
2021/12/31 06:49:55;;;;;;;3.83;1.67;;;13.90;99.90;;;12.54;100.00;100722.59;4989107;28;20052;-84
2021/12/31 06:52:22;;;;;;;3.83;1.63;;;13.90;99.90;;;12.53;100.00;100715.47;4988830;28;20058;-85
2021/12/31 06:54:50;;;;;;;5.95;1.63;;;13.90;99.90;;;12.52;100.00;100709.16;4989227;28;20133;-84
2021/12/31 06:57:17;;;;;;;6.78;1.85;;;13.90;99.90;;;12.50;100.00;100711.22;4986183;28;20070;-86
2021/12/31 06:59:44;;;;;;;6.93;1.83;;;13.90;99.90;;;12.50;100.00;100705.75;4989044;28;20038;-86
2021/12/31 07:02:11;;;;;;;5.88;1.92;;;13.80;99.90;;;12.49;100.00;100709.56;4990325;28;20045;-85
2021/12/31 07:04:38;;;;;;;4.85;2.05;;;13.80;99.90;;;12.52;100.00;100703.69;4993099;28;20070;-86
2021/12/31 07:07:07;;;;;;;4.50;1.58;;;13.80;99.90;;;12.45;100.00;100712.84;4993089;28;20050;-85
2021/12/31 07:09:34;;;;;;;6.15;1.92;;;13.80;99.90;;;12.42;100.00;100714.06;4993096;28;20511;-85
2021/12/31 07:12:02;;;;;;;7.40;1.92;;;13.80;99.90;;;12.37;100.00;100722.00;4992632;28;20133;-85
2021/12/31 07:14:29;;;;;;;5.78;1.52;;;13.70;99.90;;;12.35;100.00;100717.75;4975358;28;20399;-84
2021/12/31 07:16:56;;;;;;;4.20;1.73;;;13.70;99.90;;;12.22;100.00;100712.97;4992678;28;20583;-85
2021/12/31 07:19:23;;;;;;;4.60;2.05;;;13.70;99.90;;;12.19;100.00;100724.28;4992856;28;20046;-85
2021/12/31 07:21:51;;;;;;;5.28;1.90;;;13.60;99.90;;;12.17;100.00;100720.91;4992461;28;20077;-87
2021/12/31 07:24:19;;;;;;;5.15;1.90;;;13.60;99.90;;;12.16;100.00;100725.50;4992748;28;20046;-87
2021/12/31 07:26:46;;;;;;;6.22;1.80;;;13.60;99.90;;;12.15;100.00;100729.28;4992658;28;20049;-87
2021/12/31 07:29:14;;;;;;;6.35;2.13;;;13.60;99.90;;;12.17;100.00;100729.09;4992521;28;20065;-85
2021/12/31 07:31:41;;;;;;;6.20;1.95;;;13.60;99.90;;;12.13;100.00;100737.66;4992289;28;20074;-85
2021/12/31 07:34:08;;;;;;;6.65;2.08;;;13.60;99.90;;;12.12;100.00;100727.75;4992546;28;20046;-87
2021/12/31 07:36:35;;;;;;;4.50;1.80;;;13.60;99.90;;;12.08;100.00;100718.28;4974828;28;20569;-87
2021/12/31 07:39:06;;;;;;;6.30;2.15;;;13.60;99.90;;;12.15;100.00;100733.88;4992629;28;20074;-88
2021/12/31 07:41:35;;;;;;;5.00;1.90;;;13.60;99.90;;;12.16;100.00;100732.84;4992180;28;20050;-89
2021/12/31 07:44:03;;;;;;;6.78;2.20;;;13.50;99.90;;;12.09;100.00;100722.72;4992434;28;20081;-87
2021/12/31 07:46:30;;;;;;;5.20;1.83;;;13.50;99.90;;;12.15;100.00;100721.09;4990931;28;20518;-82
2021/12/31 07:48:57;;;;;;;5.88;1.88;;;13.50;99.90;;;12.15;100.00;100723.81;4991791;28;20574;-86
2021/12/31 07:51:25;;;;;;;5.32;2.17;;;13.50;99.90;;;12.14;100.00;100733.03;4974488;28;20819;-89
2021/12/31 07:53:52;;;;;;;4.40;1.67;;;13.50;99.90;;;12.10;100.00;100721.66;4991763;28;20048;-89
2021/12/31 07:56:20;;;;;;;7.32;2.05;;;13.50;99.90;;;12.11;100.00;100726.09;4991605;28;20125;-89
2021/12/31 07:58:48;;;;;;;6.90;2.20;;;13.50;99.90;;;12.12;100.00;100732.38;4991231;28;20074;-86
2021/12/31 08:01:17;;;;;;;4.93;1.90;;;13.50;99.90;;;12.09;100.00;100736.34;4991442;28;20050;-87
2021/12/31 08:03:44;;;;;;;5.90;2.20;;;13.50;99.90;;;12.09;100.00;100735.50;4991754;28;20046;-87
2021/12/31 08:06:11;;;;;;;4.93;1.95;;;13.50;99.90;;;12.10;100.00;100731.72;4991714;28;20057;-87
2021/12/31 08:08:39;;;;;;;5.93;2.15;;;13.50;99.90;;;12.08;100.00;100729.19;4991295;28;20500;-86
2021/12/31 08:11:07;;;;;;;6.30;2.22;;;13.50;99.90;;;12.07;100.00;100743.88;4973603;28;20073;-86
2021/12/31 08:13:34;;;;;;;4.68;2.13;;;13.50;99.90;;;12.11;100.00;100738.88;4992649;28;20073;-86
2021/12/31 08:16:03;;;;;;;5.78;2.20;;;13.50;99.90;;;12.09;100.00;100725.44;4991462;28;20042;-85
2021/12/31 08:18:31;;;;;;;4.85;2.08;;;13.50;99.90;;;12.07;100.00;100732.97;4991190;28;20042;-86
2021/12/31 08:20:58;;;;;;;5.28;2.28;;;13.50;99.90;;;12.04;100.00;100743.41;4991497;28;20571;-86
2021/12/31 08:23:25;;;;;;;5.13;2.08;;;13.50;99.90;;;12.03;100.00;100758.94;4991479;28;20122;-85
2021/12/31 08:25:52;;;;;;;7.55;2.40;;;13.50;99.90;;;12.02;100.00;100751.78;4991584;28;20120;-87
2021/12/31 08:28:20;;;;;;;7.93;2.17;;;13.50;99.90;;;12.03;100.00;100756.19;4991516;28;20462;-85
2021/12/31 08:30:47;;;;;;;6.55;2.00;;;13.50;99.90;;;12.08;100.00;100744.72;4989849;28;20241;-84
2021/12/31 08:33:16;;;;;;;7.00;2.30;;;13.50;99.90;;;12.03;100.00;100741.69;4990513;28;20050;-84
2021/12/31 08:35:43;;;;;;;5.03;2.22;;;13.50;99.90;;;12.05;100.00;100739.63;4991152;28;20049;-85
2021/12/31 08:38:10;;;;;;;6.47;2.20;;;13.50;99.90;;;12.06;100.00;100746.78;4990375;28;20517;-85
2021/12/31 08:40:37;;;;;;;7.97;2.10;;;13.50;99.90;;;12.07;100.00;100762.97;4991236;28;20088;-86
2021/12/31 08:43:05;;;;;;;6.03;2.05;;;13.50;99.90;;;12.03;100.00;100742.56;4990612;28;20061;-84
2021/12/31 08:45:33;;;;;;;7.40;2.20;;;13.50;99.90;;;11.98;100.00;100742.28;4991301;28;20062;-90
2021/12/31 08:48:01;;;;;;;5.85;2.40;;;13.50;99.90;;;12.07;100.00;100748.47;4991257;28;20047;-86
2021/12/31 08:50:30;;;;;;;10.23;2.30;;;13.50;99.90;;;12.04;100.00;100755.16;4990972;28;20074;-85
2021/12/31 08:52:58;;;;;;;4.60;1.95;;;13.50;99.90;;;12.05;100.00;100756.00;4986891;28;20054;-85
2021/12/31 08:55:26;;;;;;;3.78;2.00;;;13.50;99.90;;;12.04;100.00;100760.59;4969942;28;20057;-85
2021/12/31 08:57:53;;;;;;;7.00;2.38;;;13.50;99.90;;;12.08;100.00;100761.91;4989090;28;20120;-85
2021/12/31 09:00:21;;;;;;;7.05;2.25;;;13.50;99.90;;;12.12;100.00;100768.69;4985712;28;20039;-85
2021/12/31 09:02:50;;;;;;;6.63;2.25;;;13.50;99.90;;;12.10;100.00;100759.84;4989673;28;20038;-85
2021/12/31 09:05:18;;;;;;;7.28;2.20;;;13.40;99.90;;;12.07;100.00;100776.59;4988896;28;20126;-85
2021/12/31 09:07:46;;;;;;;5.78;2.20;;;13.50;99.90;;;12.07;100.00;100768.44;4987196;28;20121;-85
2021/12/31 09:10:14;;;;;;;6.00;2.47;;;13.50;99.90;;;12.10;100.00;100767.19;4989375;28;20149;-85
2021/12/31 09:12:44;;;;;;;5.20;2.30;;;13.50;99.90;;;12.07;100.00;100771.16;4989916;28;20104;-85
2021/12/31 09:15:11;;;;;;;5.25;2.30;;;13.50;99.90;;;12.10;100.00;100776.22;4989890;28;20050;-85
2021/12/31 09:17:39;;;;;;;5.63;2.00;;;13.50;99.90;;;12.14;100.00;100773.97;4972641;28;20150;-85
2021/12/31 09:20:07;;;;;;;5.63;2.13;;;13.50;99.90;;;12.14;100.00;100771.22;4990054;28;20085;-85
2021/12/31 09:22:35;;;;;;;6.25;2.28;;;13.60;99.90;;;12.11;100.00;100764.28;4989937;28;20101;-85
2021/12/31 09:25:05;;;;;;;7.05;2.25;;;13.60;99.90;;;12.17;100.00;100759.94;4990305;28;20038;-85
2021/12/31 09:27:32;;;;;;;5.55;2.28;;;13.50;99.90;;;12.16;100.00;100758.25;4990075;28;20092;-85
2021/12/31 09:30:00;;;;;;;7.45;2.08;;;13.50;99.90;;;12.11;100.00;100747.91;4990203;28;20455;-85
2021/12/31 09:32:27;;;;;;;5.03;2.13;;;13.50;99.90;;;12.16;100.00;100757.41;4989809;28;20038;-86
2021/12/31 09:34:55;;;;;;;7.90;2.03;;;13.60;99.90;;;12.23;100.00;100751.00;4990059;28;20046;-86
2021/12/31 09:38:00;;;;;;;4.05;1.92;;;13.60;99.90;;;12.24;100.00;100749.09;4989999;28;20042;-86
2021/12/31 09:55:38;;;;;;;6.65;1.77;;;13.70;99.90;;;12.25;100.00;100761.72;4656625;30;20568;-86
2021/12/31 09:58:07;;;;;;;5.03;1.88;;;13.60;99.90;;;12.21;100.00;100761.25;4719387;30;20060;-86
2021/12/31 10:00:35;;;;;;;6.40;2.28;;;13.60;99.90;;;12.25;100.00;100756.28;4745873;30;20086;-86
2021/12/31 10:03:21;;;;;;;6.80;1.80;;;13.60;99.90;;;12.25;100.00;100756.28;4745559;30;20060;-85
2021/12/31 10:06:05;;;;;;;2.97;1.65;;;13.60;99.90;;;12.26;100.00;100757.94;4761676;30;20903;-85
2021/12/31 10:08:42;;;;;;;6.63;2.10;;;13.70;99.90;;;12.27;100.00;100748.75;4763876;30;20087;-84
2021/12/31 10:11:13;;;;;;;3.80;1.60;;;13.70;99.90;;;12.32;100.00;100751.75;4761121;29;20499;-85
2021/12/31 10:13:43;;;;;;;4.50;1.77;;;13.70;99.90;;;12.31;100.00;100760.97;4817896;29;20050;-85
2021/12/31 10:16:22;;;;;;;4.47;2.03;;;13.70;99.90;;;12.27;100.00;100748.75;4812344;29;20424;-85
2021/12/31 10:18:52;;;;;;;4.47;1.85;;;13.70;99.90;;;12.26;100.00;100742.44;4799608;29;20263;-85
2021/12/31 10:21:20;;;;;;;9.73;2.30;;;13.70;99.90;;;12.32;100.00;100751.75;4798946;29;20197;-84
2021/12/31 10:23:48;;;;;;;6.70;2.10;;;13.70;99.90;;;12.32;100.00;100757.22;4813687;29;20081;-85
2021/12/31 10:26:18;;;;;;;4.80;1.88;;;13.70;99.90;;;12.33;100.00;100751.53;4891062;29;20059;-84
2021/12/31 10:29:01;;;;;;;6.32;2.08;;;13.70;99.90;;;12.37;100.00;100770.28;4982229;28;20054;-85